Hebron, NE

7:18 AM CDT on June 28, 2017 (GMT -0500)
Hebron Municipal

Weather History for KHJH - March, 2014

Change the Weather History Date:

Friday, March 14, 2014

  Actual Average Record
Temperature  
Mean Temperature 48 °F -  
Max Temperature 62 °F 50 °F 82 °F (2012)
Min Temperature 36 °F 27 °F 0 °F (1975)
Degree Days  
Heating Degree Days 16    
Moisture  
Dew Point 20 °F    
Average Humidity 34    
Maximum Humidity 63    
Minimum Humidity 15    
Precipitation  
Precipitation 0.00 in - - ()
Sea Level Pressure  
Sea Level Pressure 29.89 in    
Wind  
Wind Speed 10 mph (WNW)    
Max Wind Speed 18 mph    
Max Gust Speed 24 mph    
Visibility 10 miles    
Events      
Averages and records for this station are not official NWS values.
T = Trace of Precipitation, MM = Missing Value Source: NWS Daily Summary

Daily Weather History Graph

Daily Weather History Graph

Search for Another Location

Airport or City:

Trip Planner

Search our weather history database for the weather conditions in past years. The results will help you decide how hot, cold, wet, or windy it might be!

Date:

Astronomy

Mar. 14, 2014 Rise Set
Actual Time 7:43 AM CDT 7:36 PM CDT
Civil Twilight 7:16 AM CDT 8:03 PM CDT
Nautical Twilight 6:44 AM CDT 8:34 PM CDT
Astronomical Twilight 6:13 AM CDT 9:06 PM CDT
Moon 5:59 PM CDT (3/14) 6:24 AM CDT (3/14)
Length of Visible Light 12h 46m
Length of Day
11h 52m
Waxing Gibbous, 96% of the Moon is Illuminated
Mar 14
Waxing Gibbous
Mar 16
Full
Mar 23
Last Quarter
Mar 30
New
Apr 7
First Quarter

Hourly Weather History & Observations

Time (CDT) Temp. Windchill Dew Point Humidity Pressure Visibility Wind Dir Wind Speed Gust Speed Precip Events Conditions
12:15 AM 47.3 °F - 19.4 °F 33% 29.68 in 10.0 mi South 10.4 mph - N/A   Clear
12:35 AM 47.7 °F - 19.4 °F 33% 29.67 in 10.0 mi South 13.8 mph 18.4 mph N/A   Clear
12:55 AM 48.2 °F - 19.2 °F 32% 29.66 in 10.0 mi SSW 13.8 mph - N/A   Clear
1:15 AM 48.0 °F - 19.2 °F 32% 29.66 in 10.0 mi SSW 16.1 mph - N/A   Clear
1:35 AM 47.1 °F - 19.4 °F 33% 29.66 in 10.0 mi SSW 15.0 mph - N/A   Clear
1:55 AM 45.5 °F 40.3 °F 19.8 °F 36% 29.66 in 10.0 mi SW 10.4 mph - N/A   Clear
2:15 AM 44.4 °F 37.9 °F 19.8 °F 37% 29.67 in 10.0 mi SW 13.8 mph 18.4 mph N/A   Clear
2:35 AM 44.1 °F 39.5 °F 19.8 °F 38% 29.70 in 10.0 mi West 8.1 mph 18.4 mph N/A   Clear
2:55 AM 41.9 °F - 19.4 °F 41% 29.70 in 10.0 mi Calm Calm - N/A   Clear
3:15 AM 39.0 °F 34.8 °F 19.4 °F 45% 29.71 in 10.0 mi West 5.8 mph - N/A   Clear
3:35 AM 39.0 °F 34.8 °F 19.4 °F 45% 29.73 in 10.0 mi West 5.8 mph - N/A   Clear
3:55 AM 41.7 °F 36.1 °F 17.8 °F 38% 29.73 in 10.0 mi NNW 9.2 mph - N/A   Clear
4:15 AM 45.0 °F 39.7 °F 20.1 °F 37% 29.74 in 10.0 mi NNW 10.4 mph - N/A   Clear
4:35 AM 43.9 °F 39.3 °F 20.3 °F 39% 29.76 in 10.0 mi NNW 8.1 mph - N/A   Clear
4:55 AM 43.3 °F 37.7 °F 21.2 °F 41% 29.78 in 10.0 mi NNW 10.4 mph - N/A   Clear
5:15 AM 42.6 °F 37.8 °F 23.0 °F 46% 29.79 in 10.0 mi NNW 8.1 mph - N/A   Clear
5:35 AM 42.8 °F 37.5 °F 24.1 °F 48% 29.81 in 10.0 mi NNW 9.2 mph - N/A   Clear
5:55 AM 41.5 °F 37.1 °F 24.6 °F 51% 29.82 in 10.0 mi NW 6.9 mph - N/A   Clear
6:15 AM 41.0 °F 35.8 °F 24.8 °F 53% 29.83 in 10.0 mi NW 8.1 mph - N/A   Clear
6:35 AM 40.3 °F 34.9 °F 25.2 °F 55% 29.85 in 10.0 mi WNW 8.1 mph - N/A   Clear
6:55 AM 39.4 °F 34.5 °F 25.2 °F 57% 29.86 in 10.0 mi WNW 6.9 mph - N/A   Clear
7:15 AM 37.9 °F 32.7 °F 25.0 °F 60% 29.87 in 10.0 mi WNW 6.9 mph - N/A   Clear
7:35 AM 37.8 °F 31.8 °F 25.3 °F 61% 29.89 in 10.0 mi NW 8.1 mph - N/A   Clear
7:55 AM 36.7 °F 30.5 °F 25.2 °F 63% 29.90 in 10.0 mi NW 8.1 mph - N/A   Clear
8:15 AM 37.4 °F 31.4 °F 25.5 °F 62% 29.92 in 10.0 mi NW 8.1 mph - N/A   Clear
8:35 AM 39.2 °F 34.2 °F 26.2 °F 60% 29.93 in 10.0 mi NW 6.9 mph - N/A   Clear
8:55 AM 41.5 °F 36.4 °F 27.1 °F 57% 29.94 in 10.0 mi NW 8.1 mph - N/A   Clear
9:15 AM 43.2 °F 37.4 °F 27.3 °F 54% 29.96 in 10.0 mi NNW 10.4 mph 18.4 mph N/A   Clear
9:35 AM 44.8 °F 39.0 °F 27.5 °F 51% 29.97 in 10.0 mi NNW 11.5 mph 18.4 mph N/A   Clear
9:55 AM 46.2 °F 39.0 °F 27.9 °F 49% 29.97 in 10.0 mi NNW 18.4 mph 24.2 mph N/A   Clear
10:15 AM 48.2 °F - 27.7 °F 45% 29.97 in 10.0 mi NNW 16.1 mph 20.7 mph N/A   Clear
10:35 AM 49.6 °F - 27.1 °F 42% 29.98 in 10.0 mi NNW 9.2 mph - N/A   Clear
10:55 AM 50.9 °F - 27.0 °F 40% 29.98 in 10.0 mi NNW 10.4 mph 19.6 mph N/A   Clear
11:15 AM 52.3 °F - 24.6 °F 34% 29.98 in 10.0 mi NNW 17.3 mph 21.9 mph N/A   Clear
11:35 AM 53.4 °F - 20.5 °F 28% 29.98 in 10.0 mi NNW 16.1 mph 23.0 mph N/A   Clear
11:55 AM 54.3 °F - 18.9 °F 25% 29.99 in 10.0 mi NNW 13.8 mph 20.7 mph N/A   Clear
12:15 PM 55.8 °F - 18.1 °F 23% 29.99 in 10.0 mi NNW 11.5 mph 20.7 mph N/A   Clear
12:35 PM 57.0 °F - 17.6 °F 21% 29.98 in 10.0 mi North 12.7 mph 19.6 mph N/A   Clear
12:55 PM 57.4 °F - 17.1 °F 21% 29.99 in 10.0 mi NNW 9.2 mph 18.4 mph N/A   Clear
1:15 PM 57.6 °F - 16.7 °F 20% 29.99 in 10.0 mi WNW 11.5 mph 21.9 mph N/A   Clear
1:35 PM 58.1 °F - 16.3 °F 20% 29.99 in 10.0 mi North 12.7 mph 23.0 mph N/A   Clear
1:55 PM 58.8 °F - 17.2 °F 20% 29.99 in 10.0 mi NNW 16.1 mph 21.9 mph N/A   Clear
2:15 PM 59.9 °F - 18.0 °F 20% 29.98 in 10.0 mi NNW 13.8 mph 20.7 mph N/A   Clear
2:35 PM 59.7 °F - 17.4 °F 19% 29.97 in 10.0 mi NW 12.7 mph 18.4 mph N/A   Clear
2:55 PM 59.5 °F - 17.6 °F 20% 29.96 in 10.0 mi NNW 9.2 mph - N/A   Clear
3:15 PM 60.4 °F - 17.6 °F 19% 29.96 in 10.0 mi NW 13.8 mph 21.9 mph N/A   Clear
3:35 PM 61.0 °F - 17.1 °F 18% 29.96 in 10.0 mi NNW 6.9 mph 18.4 mph N/A   Clear
3:55 PM 60.8 °F - 16.9 °F 18% 29.96 in 10.0 mi WNW 11.5 mph - N/A   Clear
4:15 PM 61.3 °F - 16.5 °F 18% 29.96 in 10.0 mi NNW 9.2 mph 17.3 mph N/A   Clear
4:35 PM 61.2 °F - 16.2 °F 17% 29.96 in 10.0 mi West 6.9 mph - N/A   Clear
4:55 PM 61.7 °F - 15.6 °F 17% 29.96 in 10.0 mi WNW 10.4 mph - N/A   Clear
5:15 PM 61.5 °F - 14.5 °F 16% 29.95 in 10.0 mi NW 6.9 mph - N/A   Clear
5:35 PM 61.9 °F - 13.3 °F 15% 29.95 in 10.0 mi WNW 12.7 mph - N/A   Clear
5:55 PM 61.7 °F - 13.5 °F 15% 29.94 in 10.0 mi WNW 9.2 mph - N/A   Clear
6:15 PM 61.3 °F - 13.5 °F 15% 29.94 in 10.0 mi WNW 6.9 mph - N/A   Clear
6:35 PM 60.8 °F - 13.3 °F 16% 29.94 in 10.0 mi WNW 4.6 mph - N/A   Clear
6:55 PM 59.9 °F - 13.8 °F 16% 29.94 in 10.0 mi West 3.5 mph - N/A   Clear
7:15 PM 58.5 °F - 15.1 °F 18% 29.94 in 10.0 mi Calm Calm - N/A   Clear
7:35 PM 52.2 °F - 15.8 °F 24% 29.94 in 10.0 mi SSW 3.5 mph - N/A   Clear
7:55 PM 46.6 °F - 16.3 °F 30% 29.95 in 10.0 mi South 5.8 mph - N/A   Clear
8:15 PM 48.2 °F - 16.2 °F 28% 29.94 in 10.0 mi South 5.8 mph - N/A   Clear
8:35 PM 47.5 °F - 16.7 °F 29% 29.94 in 10.0 mi South 8.1 mph - N/A   Clear
8:55 PM 46.8 °F - 17.1 °F 31% 29.94 in 10.0 mi South 8.1 mph - N/A   Clear
9:15 PM 45.7 °F 41.0 °F 17.2 °F 32% 29.94 in 10.0 mi South 9.2 mph - N/A   Clear
9:35 PM 46.0 °F 41.4 °F 17.1 °F 31% 29.94 in 10.0 mi South 9.2 mph - N/A   Clear
9:55 PM 45.5 °F 40.3 °F 17.1 °F 32% 29.94 in 10.0 mi South 10.4 mph - N/A   Clear
10:15 PM 43.5 °F 38.9 °F 17.4 °F 35% 29.94 in 10.0 mi South 8.1 mph - N/A   Clear
10:35 PM 43.9 °F 38.3 °F 17.8 °F 35% 29.94 in 10.0 mi South 10.4 mph - N/A   Clear
10:55 PM 44.1 °F 39.0 °F 18.0 °F 35% 29.94 in 10.0 mi South 9.2 mph - N/A   Clear
11:15 PM 44.6 °F 38.8 °F 18.1 °F 35% 29.94 in 10.0 mi South 11.5 mph - N/A   Clear
11:35 PM 43.9 °F 38.8 °F 18.3 °F 36% 29.93 in 10.0 mi South 9.2 mph - N/A   Clear
11:55 PM 43.3 °F 37.7 °F 18.5 °F 37% 29.92 in 10.0 mi South 10.4 mph - N/A   Clear